Kezdőlap
METAR-TAF:

METAR-TAF

Repülőterek :

Kansas City, Missouri, Amerikai Egyesült Államok

földrajzi szélesség: 39-17-50N, földrajzi hosszúság: 094-43-50W, magasság: 312 m

Jelenlegi meteorológiai megfigyelések

A jelentés 40 perccel ezelõtt készült, 15:53 UTC
Kelet-délkeleti szél 8 kt
Hőmérséklet 28°C
Páratartalom 74%
Légköri nyomás 1016 hPa
Látótávolság: 16.1 km
Kevés felhő 5000 lábon
Szakadozott felhőzet 20000 lábon

METAR: KMCI 131553Z 12008KT 10SM FEW050 BKN200 28/23 A3001 RMK AO2 SLP151 T02830233

Idő: 11:33 (16:33 UTC)

Előrejelzés

A jelentés 5 órával és 13 perccel ezelõtt készült, 11:20 UTC
Az előrejelzés 13-én 12 óra UTC és 14-én 12 óra UTC között érvényes
Délkeleti szél 6 kt
Látótávolság: 10 km
Szakadozott felhőzet 12000 lábon
13-én 1700 órától UTC szerint
Délkeleti szél 7 kt
Látótávolság: 10 km
Szórványos felhőzet 4000 lábon

TAF: KMCI 131120Z 1312/1412 14006KT P6SM BKN120 FM131700 13007KT P6SM SCT040

Meteorológiai megfigyelések és előrejelzések több, mint 4000 repülőtéren (METAR és TAF jelentéseket).

A térképen piros és sárga pontok jelzik az elérhető meteorológiai állomásokat.

Mozgassa az egeret a pont fölött, hogy megjelenjen az állomás neve.

Azután kattintson az időjárási megfigyelések és előrejelzések megtekintéséhez.

A térkép megváltoztatása: kattintson a fekete keresztel jelölt zöld gombra ráközelítéshez, a vonallal jelölt zöld gombra távolításhoz, vagy a zöld nyilakra a szomszédos térképek eléréséhez.


METAR-TAF: